createdAt,value
2018-10-01T00:04:25.371Z,7.63
2018-10-01T00:09:28.779Z,5.97
2018-10-01T00:14:32.819Z,7.50
2018-10-01T00:19:41.762Z,9.90
2018-10-01T00:24:45.157Z,8.00
2018-10-01T00:29:48.509Z,8.47
2018-10-01T00:34:54.507Z,8.17
2018-10-01T00:39:57.866Z,6.57
2018-10-01T00:45:01.231Z,7.43
2018-10-01T00:50:04.879Z,8.13
2018-10-01T00:55:08.311Z,7.87
2018-10-01T01:00:12.452Z,8.77
2018-10-01T01:05:15.839Z,6.83
2018-10-01T01:10:19.248Z,8.10
2018-10-01T01:15:22.658Z,8.07
2018-10-01T01:20:26.077Z,7.03
2018-10-01T01:25:29.423Z,6.43
2018-10-01T01:30:32.822Z,6.07
2018-10-01T01:35:36.165Z,7.23
2018-10-01T01:40:39.664Z,7.20
2018-10-01T01:45:43.092Z,6.70
2018-10-01T01:50:47.228Z,8.43
2018-10-01T02:03:15.067Z,6.80
2018-10-01T02:08:18.433Z,5.30
2018-10-01T02:13:21.847Z,7.00
2018-10-01T02:18:25.299Z,5.73
2018-10-01T02:23:28.732Z,6.47
2018-10-01T02:28:32.127Z,6.50
2018-10-01T02:33:35.519Z,8.43
2018-10-01T02:38:38.867Z,5.77
2018-10-01T02:43:42.487Z,6.93
2018-10-01T02:48:46.136Z,7.03
2018-10-01T02:53:54.901Z,6.97
2018-10-01T02:58:58.322Z,5.93
2018-10-01T03:04:01.720Z,7.27
2018-10-01T03:09:09.280Z,5.07
2018-10-01T03:14:12.902Z,7.20
2018-10-01T03:19:16.283Z,6.27
2018-10-01T03:24:19.719Z,9.20
2018-10-01T03:29:23.102Z,7.50
2018-10-01T03:34:26.485Z,8.83
2018-10-01T03:39:30.332Z,8.75
2018-10-01T03:44:33.697Z,5.47
2018-10-01T03:49:37.273Z,6.37
2018-10-01T03:54:41.203Z,6.10
2018-10-01T03:59:44.566Z,6.13
2018-10-01T04:04:47.902Z,7.03
2018-10-01T04:09:52.027Z,7.67
2018-10-01T04:14:55.372Z,7.10
2018-10-01T04:19:58.856Z,7.90
2018-10-01T04:25:02.332Z,6.10
2018-10-01T04:30:07.572Z,8.30
2018-10-01T04:35:10.982Z,7.23
2018-10-01T04:40:14.525Z,7.97
2018-10-01T04:45:17.919Z,6.93
2018-10-01T04:50:21.343Z,6.00
2018-10-01T04:55:24.755Z,7.77
2018-10-01T05:00:28.141Z,8.17
2018-10-01T05:05:31.539Z,8.87
2018-10-01T05:10:34.882Z,8.20
2018-10-01T05:15:38.284Z,7.93
2018-10-01T05:20:41.699Z,7.27
2018-10-01T05:25:45.728Z,6.20
2018-10-01T05:30:49.172Z,9.80
2018-10-01T05:35:52.656Z,8.07
2018-10-01T05:40:56.027Z,7.47
2018-10-01T05:45:59.448Z,11.43
2018-10-01T05:51:02.899Z,5.97
2018-10-01T05:56:08.523Z,9.30
2018-10-01T06:01:11.902Z,10.07
2018-10-01T06:06:15.713Z,9.87
2018-10-01T06:11:19.126Z,9.20
2018-10-01T06:16:23.014Z,7.53
2018-10-01T06:21:26.384Z,11.07
2018-10-01T06:26:29.925Z,12.07
2018-10-01T06:31:33.748Z,13.23
2018-10-01T06:36:37.123Z,15.57
2018-10-01T06:41:40.731Z,12.53
2018-10-01T06:46:44.117Z,12.33
2018-10-01T06:51:47.636Z,12.27
2018-10-01T06:56:51.073Z,11.77
2018-10-01T07:01:54.480Z,11.77
2018-10-01T07:06:58.853Z,13.50
2018-10-01T07:12:02.270Z,12.70
2018-10-01T07:17:05.878Z,10.90
2018-10-01T07:22:09.223Z,14.87
2018-10-01T07:27:12.670Z,9.00
2018-10-01T07:32:16.051Z,11.43
2018-10-01T07:37:19.446Z,10.53
2018-10-01T07:42:23.512Z,14.67
2018-10-01T07:47:27.331Z,17.00
2018-10-01T07:52:30.758Z,9.77
2018-10-01T07:57:34.220Z,12.80
2018-10-01T08:02:37.707Z,9.43
2018-10-01T08:07:41.130Z,13.87
2018-10-01T08:12:45.288Z,12.23
2018-10-01T08:17:48.781Z,7.47
2018-10-01T08:22:52.400Z,8.93
2018-10-01T08:27:55.828Z,8.97
2018-10-01T08:32:59.223Z,10.67
2018-10-01T08:38:02.690Z,10.33
2018-10-01T08:43:06.054Z,9.43
2018-10-01T08:48:10.776Z,7.90
2018-10-01T08:53:20.706Z,10.47
2018-10-01T08:58:24.086Z,8.00
2018-10-01T09:03:27.581Z,7.36
2018-10-01T09:08:31.007Z,9.43
2018-10-01T09:13:34.354Z,8.17
2018-10-01T09:18:37.737Z,8.45
2018-10-01T09:23:41.091Z,11.57
2018-10-01T09:28:44.467Z,11.37
2018-10-01T09:33:48.548Z,12.40
2018-10-01T09:38:51.943Z,10.17
2018-10-01T09:43:55.341Z,7.07
2018-10-01T09:48:58.729Z,10.30
2018-10-01T09:54:03.512Z,8.90
2018-10-01T09:59:07.164Z,8.37
2018-10-01T10:04:10.905Z,8.77
2018-10-01T10:09:14.777Z,7.20
2018-10-01T10:14:19.141Z,9.50
2018-10-01T10:19:22.783Z,7.87
2018-10-01T10:24:26.650Z,8.77
2018-10-01T10:29:30.375Z,11.80
2018-10-01T10:34:34.269Z,8.63
2018-10-01T10:39:37.946Z,10.27
2018-10-01T10:52:05.954Z,11.27
2018-10-01T10:57:09.625Z,14.10
2018-10-01T11:02:13.526Z,12.37
2018-10-01T11:07:17.477Z,15.83
2018-10-01T11:12:22.048Z,12.73
2018-10-01T11:17:26.224Z,12.30
2018-10-01T11:22:29.893Z,13.68
2018-10-01T11:27:33.628Z,15.17
2018-10-01T11:32:38.276Z,12.57
2018-10-01T11:37:41.929Z,12.07
2018-10-01T11:42:45.726Z,13.77
2018-10-01T11:47:49.549Z,13.30
2018-10-01T11:52:53.997Z,14.43
2018-10-01T11:57:57.688Z,13.07
2018-10-01T12:03:01.567Z,13.33
2018-10-01T12:08:05.658Z,12.23
2018-10-01T12:13:09.321Z,12.40
2018-10-01T12:18:13.618Z,14.37
2018-10-01T12:23:17.296Z,15.63
2018-10-01T12:28:20.980Z,13.70
2018-10-01T12:33:24.783Z,19.13
2018-10-01T12:38:28.727Z,14.67
2018-10-01T12:43:33.591Z,11.45
2018-10-01T12:48:37.376Z,12.70
2018-10-01T12:53:41.066Z,14.07
2018-10-01T12:58:45.737Z,14.83
2018-10-01T13:03:50.006Z,14.80
2018-10-01T13:08:54.367Z,14.37
2018-10-01T13:13:58.759Z,14.67
2018-10-01T13:19:02.585Z,12.37
2018-10-01T13:24:07.047Z,9.93
2018-10-01T13:29:10.768Z,7.73
2018-10-01T13:34:14.509Z,10.80
2018-10-01T13:39:18.182Z,9.20
2018-10-01T13:44:22.530Z,9.40
2018-10-01T13:49:26.465Z,7.80
2018-10-01T13:54:30.272Z,5.53
2018-10-01T13:59:34.669Z,6.53
2018-10-01T14:04:38.379Z,6.43
2018-10-01T14:09:42.041Z,4.37
2018-10-01T14:14:45.662Z,4.93
2018-10-01T14:19:50.381Z,3.87
2018-10-01T14:24:54.038Z,3.07
2018-10-01T14:29:58.368Z,2.67
2018-10-01T14:35:02.611Z,7.70
2018-10-01T14:40:07.217Z,4.37
2018-10-01T14:45:11.168Z,3.67
2018-10-01T14:50:14.772Z,4.30
2018-10-01T14:55:18.505Z,2.63
2018-10-01T15:00:22.913Z,3.43
2018-10-01T15:05:27.184Z,5.43
2018-10-01T15:10:31.048Z,3.47
2018-10-01T15:15:34.840Z,5.73
2018-10-01T15:20:38.548Z,4.78
2018-10-01T15:25:42.321Z,5.40
2018-10-01T15:30:45.985Z,4.17
2018-10-01T15:35:50.188Z,3.60
2018-10-01T15:40:53.947Z,5.23
2018-10-01T15:45:58.552Z,4.83
2018-10-01T15:51:02.208Z,4.87
2018-10-01T15:56:05.939Z,5.30
2018-10-01T16:01:09.857Z,5.20
2018-10-01T16:06:13.612Z,6.73
2018-10-01T16:11:18.028Z,4.83
2018-10-01T16:16:22.161Z,6.23
2018-10-01T16:21:26.056Z,6.20
2018-10-01T16:26:29.699Z,8.37
2018-10-01T16:31:33.655Z,4.57
2018-10-01T16:36:37.549Z,8.67
2018-10-01T16:41:41.276Z,4.80
2018-10-01T16:46:44.913Z,6.43
2018-10-01T16:51:48.656Z,8.40
2018-10-01T16:56:52.335Z,7.20
2018-10-01T17:01:56.100Z,10.60
2018-10-01T17:06:59.881Z,5.43
2018-10-01T17:12:04.568Z,8.07
2018-10-01T17:17:08.461Z,5.90
2018-10-01T17:22:12.269Z,6.73
2018-10-01T17:27:15.888Z,7.80
2018-10-01T17:32:20.020Z,6.07
2018-10-01T17:37:24.369Z,6.90
2018-10-01T17:42:28.283Z,7.70
2018-10-01T17:47:32.103Z,7.47
2018-10-01T17:52:35.831Z,6.73
2018-10-01T17:57:39.568Z,8.93
2018-10-01T18:02:43.761Z,7.13
2018-10-01T18:07:48.154Z,6.97
2018-10-01T18:12:51.886Z,5.87
2018-10-01T18:17:56.739Z,3.97
2018-10-01T18:23:00.642Z,4.07
2018-10-01T18:28:04.497Z,4.67
2018-10-01T18:33:08.270Z,4.63
2018-10-01T18:38:11.902Z,5.90
2018-10-01T18:43:16.517Z,3.33
2018-10-01T18:48:21.209Z,3.97
2018-10-01T18:53:25.571Z,4.83
2018-10-01T18:58:31.094Z,5.50
2018-10-01T19:03:36.211Z,4.23
2018-10-01T19:08:40.456Z,5.37
2018-10-01T19:13:44.184Z,6.40
2018-10-01T19:18:47.910Z,5.10
2018-10-01T19:23:51.573Z,3.90
2018-10-01T19:28:55.245Z,3.13
2018-10-01T19:33:58.966Z,4.03
2018-10-01T19:39:02.722Z,3.63
2018-10-01T19:44:06.397Z,2.53
2018-10-01T19:49:10.234Z,2.80
2018-10-01T19:54:14.065Z,3.20
2018-10-01T19:59:17.846Z,3.30
2018-10-01T20:04:21.609Z,2.93
2018-10-01T20:09:25.316Z,4.53
2018-10-01T20:14:30.517Z,2.40
2018-10-01T20:19:34.299Z,3.17
2018-10-01T20:24:38.309Z,2.37
2018-10-01T20:29:42.186Z,2.40
2018-10-01T20:34:45.849Z,2.00
2018-10-01T20:39:49.746Z,2.37
2018-10-01T20:44:53.417Z,2.57
2018-10-01T20:49:57.228Z,1.67
2018-10-01T20:55:00.940Z,2.30
2018-10-01T21:00:05.027Z,2.63
2018-10-01T21:05:09.038Z,2.73
2018-10-01T21:10:12.977Z,5.13
2018-10-01T21:15:16.736Z,2.90
2018-10-01T21:20:20.392Z,3.27
2018-10-01T21:25:24.825Z,2.60
2018-10-01T21:30:29.078Z,3.17
2018-10-01T21:35:32.697Z,4.13
2018-10-01T21:40:36.402Z,2.63
2018-10-01T21:45:40.745Z,2.37
2018-10-01T21:50:51.839Z,2.10
2018-10-01T21:55:55.469Z,3.30
2018-10-01T22:01:04.987Z,3.70
2018-10-01T22:06:09.901Z,3.40
2018-10-01T22:11:13.767Z,2.80
2018-10-01T22:16:17.400Z,4.80
2018-10-01T22:21:21.730Z,2.33
2018-10-01T22:26:25.368Z,2.70
2018-10-01T22:31:29.082Z,4.63
2018-10-01T22:36:32.700Z,6.00
2018-10-01T22:41:36.524Z,4.90
2018-10-01T22:46:40.138Z,5.30
2018-10-01T22:51:43.738Z,3.85
2018-10-01T22:56:48.050Z,3.07
2018-10-01T23:01:51.722Z,2.80
2018-10-01T23:06:55.428Z,4.23
2018-10-01T23:11:59.047Z,4.37
2018-10-01T23:17:02.677Z,2.60
2018-10-01T23:22:07.139Z,3.97
2018-10-01T23:27:11.421Z,3.93
2018-10-01T23:32:15.697Z,5.00
2018-10-01T23:37:19.413Z,6.50
2018-10-01T23:42:23.737Z,3.63
2018-10-01T23:47:27.472Z,3.97
2018-10-01T23:52:31.195Z,2.93
2018-10-01T23:57:34.920Z,4.37
